UAL1010 KPHX-KORD
Flight info
| Callsign | UAL1010 |
|---|---|
| Flight time | N/A |
| Altitude | 35000 |
| Route | FORPE1 ABQ GCK J18 SLN J96 IRK BENKY6 |
| Aircraft | A21N/M-SDE2E3FGHIRWXY/LB1 |
Departure
| Time | 2026-05-07 02:56 |
|---|---|
| Airport | Phoenix Sky Harbor International Airport (KPHX) |
Arrival
| Time | N/A |
|---|---|
| Airport | Chicago O'Hare International Airport (KORD) |
| Time | Latitude | Longitude | Altitude | Speed | Heading |
|---|---|---|---|---|---|
| 2026-05-07 02:35 | 33.43369 | -111.99365 | 1125 ft | 0 kts | 306° |
| 2026-05-07 02:49 | 33.43366 | -111.99360 | 1125 ft | 3 kts | 306° |
| 2026-05-07 02:49 | 33.43356 | -111.99341 | 1119 ft | 3 kts | 265° |
| 2026-05-07 02:50 | 33.43364 | -111.99320 | 1116 ft | 3 kts | 202° |
| 2026-05-07 02:50 | 33.43372 | -111.99317 | 1124 ft | 0 kts | 173° |
| 2026-05-07 02:52 | 33.43356 | -111.99318 | 1115 ft | 5 kts | 185° |
| 2026-05-07 02:52 | 33.43297 | -111.99333 | 1120 ft | 10 kts | 194° |
| 2026-05-07 02:52 | 33.43228 | -111.99342 | 1124 ft | 9 kts | 182° |
| 2026-05-07 02:52 | 33.43197 | -111.99342 | 1122 ft | 0 kts | 179° |
| 2026-05-07 02:53 | 33.43165 | -111.99342 | 1135 ft | 5 kts | 179° |
| 2026-05-07 02:54 | 33.43116 | -111.99374 | 1132 ft | 12 kts | 235° |
| 2026-05-07 02:54 | 33.43105 | -111.99458 | 1132 ft | 5 kts | 270° |
| 2026-05-07 02:54 | 33.43105 | -111.99460 | 1132 ft | 1 kts | 269° |
| 2026-05-07 02:54 | 33.43105 | -111.99470 | 1132 ft | 2 kts | 269° |
| 2026-05-07 02:55 | 33.43104 | -111.99574 | 1132 ft | 40 kts | 270° |
| 2026-05-07 02:55 | 33.43105 | -112.00189 | 1132 ft | 106 kts | 270° |
| 2026-05-07 02:55 | 33.43107 | -112.01294 | 1130 ft | 157 kts | 270° |
| 2026-05-07 02:55 | 33.43117 | -112.02681 | 1438 ft | 174 kts | 269° |
| 2026-05-07 02:56 | 33.43151 | -112.04136 | 2009 ft | 178 kts | 272° |
| 2026-05-07 02:56 | 33.43214 | -112.05654 | 2472 ft | 188 kts | 274° |
| 2026-05-07 02:56 | 33.43287 | -112.07213 | 3162 ft | 185 kts | 273° |
| 2026-05-07 02:56 | 33.43339 | -112.08817 | 3439 ft | 201 kts | 272° |
| 2026-05-07 02:57 | 33.43372 | -112.10569 | 3637 ft | 222 kts | 271° |
| 2026-05-07 02:57 | 33.43384 | -112.12537 | 3779 ft | 249 kts | 270° |
| 2026-05-07 02:57 | 33.43373 | -112.14698 | 4099 ft | 269 kts | 270° |
| 2026-05-07 02:57 | 33.43450 | -112.16950 | 4826 ft | 265 kts | 285° |
| 2026-05-07 02:58 | 33.44299 | -112.18794 | 5797 ft | 252 kts | 320° |
| 2026-05-07 02:58 | 33.45811 | -112.19687 | 6568 ft | 249 kts | 352° |
| 2026-05-07 02:58 | 33.47539 | -112.19739 | 7272 ft | 249 kts | 0° |
| 2026-05-07 02:58 | 33.49279 | -112.19705 | 7950 ft | 251 kts | 2° |
| 2026-05-07 02:59 | 33.51029 | -112.19663 | 8622 ft | 253 kts | 2° |
| 2026-05-07 02:59 | 33.52792 | -112.19596 | 9309 ft | 254 kts | 9° |
| 2026-05-07 02:59 | 33.54555 | -112.19163 | 9705 ft | 268 kts | 16° |
| 2026-05-07 02:59 | 33.56399 | -112.18615 | 10148 ft | 277 kts | 16° |
| 2026-05-07 03:00 | 33.58341 | -112.18035 | 10322 ft | 299 kts | 16° |
| 2026-05-07 03:00 | 33.60411 | -112.17342 | 10475 ft | 319 kts | 24° |
| 2026-05-07 03:00 | 33.62346 | -112.15997 | 10670 ft | 333 kts | 40° |
| 2026-05-07 03:00 | 33.63995 | -112.14009 | 11135 ft | 339 kts | 47° |
| 2026-05-07 03:01 | 33.65617 | -112.11936 | 11715 ft | 343 kts | 46° |
| 2026-05-07 03:01 | 33.67264 | -112.09835 | 12260 ft | 348 kts | 46° |
| 2026-05-07 03:01 | 33.68933 | -112.07708 | 12856 ft | 351 kts | 47° |
| 2026-05-07 03:01 | 33.70617 | -112.05565 | 13473 ft | 354 kts | 47° |
| 2026-05-07 03:02 | 33.72276 | -112.03362 | 14052 ft | 358 kts | 52° |
| 2026-05-07 03:02 | 33.73564 | -112.00798 | 14601 ft | 361 kts | 65° |
| 2026-05-07 03:02 | 33.74322 | -111.97954 | 15157 ft | 365 kts | 78° |
| 2026-05-07 03:02 | 33.74520 | -111.94908 | 15715 ft | 370 kts | 91° |
| 2026-05-07 03:03 | 33.74274 | -111.91821 | 16299 ft | 373 kts | 94° |
| 2026-05-07 03:03 | 33.74008 | -111.88716 | 16888 ft | 374 kts | 94° |
| 2026-05-07 03:03 | 33.73749 | -111.85598 | 17458 ft | 377 kts | 94° |
| 2026-05-07 03:03 | 33.73490 | -111.82449 | 18009 ft | 380 kts | 94° |
| 2026-05-07 03:04 | 33.73230 | -111.79283 | 18517 ft | 383 kts | 94° |
| 2026-05-07 03:04 | 33.72967 | -111.76083 | 18916 ft | 387 kts | 94° |
| 2026-05-07 03:04 | 33.72697 | -111.72848 | 19374 ft | 391 kts | 94° |
| 2026-05-07 03:04 | 33.72425 | -111.69633 | 19846 ft | 393 kts | 94° |
| 2026-05-07 03:05 | 33.72147 | -111.66360 | 20322 ft | 396 kts | 94° |
| 2026-05-07 03:05 | 33.71865 | -111.63062 | 20782 ft | 398 kts | 94° |
| 2026-05-07 03:05 | 33.71580 | -111.59741 | 21248 ft | 401 kts | 94° |
| 2026-05-07 03:05 | 33.71294 | -111.56401 | 21674 ft | 403 kts | 94° |
| 2026-05-07 03:06 | 33.71007 | -111.53043 | 22093 ft | 406 kts | 94° |
| 2026-05-07 03:06 | 33.70719 | -111.49668 | 22528 ft | 408 kts | 94° |
| 2026-05-07 03:06 | 33.70427 | -111.46270 | 22928 ft | 410 kts | 94° |
| 2026-05-07 03:06 | 33.70132 | -111.42850 | 23334 ft | 413 kts | 94° |
| 2026-05-07 03:07 | 33.69839 | -111.39463 | 23715 ft | 415 kts | 94° |
| 2026-05-07 03:07 | 33.69538 | -111.36009 | 24066 ft | 417 kts | 94° |
| 2026-05-07 03:07 | 33.69233 | -111.32541 | 24433 ft | 418 kts | 94° |
| 2026-05-07 03:07 | 33.69115 | -111.29055 | 24785 ft | 418 kts | 85° |
| 2026-05-07 03:08 | 33.69496 | -111.25599 | 25152 ft | 418 kts | 76° |
| 2026-05-07 03:08 | 33.70366 | -111.22274 | 25488 ft | 418 kts | 66° |
| 2026-05-07 03:08 | 33.71525 | -111.19064 | 25841 ft | 420 kts | 66° |
| 2026-05-07 03:08 | 33.72669 | -111.15879 | 26181 ft | 421 kts | 66° |
| 2026-05-07 03:09 | 33.73824 | -111.12638 | 26504 ft | 423 kts | 66° |
| 2026-05-07 03:09 | 33.74982 | -111.09374 | 26801 ft | 426 kts | 66° |
| 2026-05-07 03:09 | 33.76144 | -111.06094 | 27096 ft | 428 kts | 66° |
| 2026-05-07 03:09 | 33.77314 | -111.02799 | 27410 ft | 429 kts | 66° |
| 2026-05-07 03:10 | 33.78490 | -110.99494 | 27713 ft | 431 kts | 66° |
| 2026-05-07 03:10 | 33.79669 | -110.96178 | 28022 ft | 432 kts | 66° |
| 2026-05-07 03:10 | 33.80852 | -110.92847 | 28343 ft | 434 kts | 66° |
| 2026-05-07 03:10 | 33.82037 | -110.89508 | 28657 ft | 435 kts | 66° |
| 2026-05-07 03:11 | 33.83211 | -110.86196 | 28982 ft | 437 kts | 66° |
| 2026-05-07 03:11 | 33.84405 | -110.82825 | 29268 ft | 439 kts | 66° |
| 2026-05-07 03:11 | 33.85600 | -110.79445 | 29596 ft | 440 kts | 66° |
| 2026-05-07 03:11 | 33.86800 | -110.76052 | 29929 ft | 441 kts | 66° |
| 2026-05-07 03:12 | 33.87998 | -110.72660 | 30279 ft | 440 kts | 66° |
| 2026-05-07 03:12 | 33.89197 | -110.69261 | 30568 ft | 441 kts | 66° |
| 2026-05-07 03:12 | 33.90393 | -110.65854 | 30817 ft | 443 kts | 66° |
| 2026-05-07 03:12 | 33.91592 | -110.62433 | 31061 ft | 444 kts | 66° |
| 2026-05-07 03:13 | 33.92796 | -110.59004 | 31324 ft | 446 kts | 66° |
| 2026-05-07 03:13 | 33.94005 | -110.55561 | 31567 ft | 447 kts | 66° |
| 2026-05-07 03:13 | 33.95199 | -110.52154 | 31809 ft | 448 kts | 66° |
| 2026-05-07 03:13 | 33.96413 | -110.48688 | 32058 ft | 450 kts | 66° |
| 2026-05-07 03:14 | 33.97630 | -110.45213 | 32257 ft | 452 kts | 66° |
| 2026-05-07 03:14 | 33.98857 | -110.41705 | 32386 ft | 456 kts | 67° |
| 2026-05-07 03:14 | 34.01333 | -110.34598 | 32693 ft | 463 kts | 67° |
| 2026-05-07 03:15 | 34.02579 | -110.31008 | 32892 ft | 465 kts | 67° |
| 2026-05-07 03:15 | 34.03807 | -110.27463 | 33248 ft | 462 kts | 67° |
| 2026-05-07 03:15 | 34.05032 | -110.23926 | 33888 ft | 454 kts | 66° |
| 2026-05-07 03:15 | 34.06245 | -110.20428 | 34265 ft | 451 kts | 66° |
| 2026-05-07 03:16 | 34.07457 | -110.16936 | 34506 ft | 452 kts | 66° |
| 2026-05-07 03:16 | 34.08671 | -110.13436 | 34720 ft | 453 kts | 66° |
| 2026-05-07 03:16 | 34.09889 | -110.09927 | 34865 ft | 455 kts | 67° |
| 2026-05-07 03:16 | 34.11111 | -110.06390 | 35015 ft | 458 kts | 67° |
| 2026-05-07 03:17 | 34.12338 | -110.02831 | 35140 ft | 461 kts | 67° |
| 2026-05-07 03:17 | 34.14781 | -109.95715 | 35179 ft | 462 kts | 67° |
| 2026-05-07 03:18 | 34.17241 | -109.88551 | 35167 ft | 462 kts | 67° |
| 2026-05-07 03:18 | 34.19704 | -109.81371 | 35138 ft | 462 kts | 67° |
| 2026-05-07 03:19 | 34.22177 | -109.74158 | 35114 ft | 468 kts | 67° |
| 2026-05-07 03:19 | 34.24670 | -109.66862 | 35026 ft | 470 kts | 67° |
| 2026-05-07 03:20 | 34.27139 | -109.59595 | 35054 ft | 471 kts | 67° |
| 2026-05-07 03:20 | 34.29623 | -109.52265 | 35084 ft | 471 kts | 67° |
| 2026-05-07 03:21 | 34.32113 | -109.44932 | 35127 ft | 471 kts | 67° |
| 2026-05-07 03:21 | 34.34596 | -109.37583 | 35112 ft | 472 kts | 67° |
| 2026-05-07 03:22 | 34.37079 | -109.30218 | 35090 ft | 473 kts | 67° |
| 2026-05-07 03:22 | 34.39546 | -109.22893 | 35058 ft | 474 kts | 68° |
| 2026-05-07 03:23 | 34.42027 | -109.15501 | 35017 ft | 474 kts | 68° |
| 2026-05-07 03:23 | 34.44325 | -109.08016 | 34960 ft | 475 kts | 71° |
| 2026-05-07 03:24 | 34.46365 | -109.00385 | 34975 ft | 477 kts | 72° |
| 2026-05-07 03:24 | 34.48370 | -108.92763 | 34956 ft | 479 kts | 72° |
| 2026-05-07 03:25 | 34.50464 | -108.85081 | 34959 ft | 480 kts | 71° |
| 2026-05-07 03:25 | 34.52598 | -108.77409 | 34978 ft | 481 kts | 71° |
| 2026-05-07 03:26 | 34.54725 | -108.69710 | 34973 ft | 482 kts | 71° |
| 2026-05-07 03:26 | 34.56833 | -108.61974 | 34973 ft | 483 kts | 71° |
| 2026-05-07 03:27 | 34.58918 | -108.54274 | 34985 ft | 484 kts | 71° |
| 2026-05-07 03:27 | 34.61026 | -108.46508 | 34992 ft | 485 kts | 71° |
| 2026-05-07 03:28 | 34.63135 | -108.38729 | 34979 ft | 486 kts | 71° |
| 2026-05-07 03:28 | 34.64889 | -108.32239 | 34976 ft | 488 kts | 71° |
| 2026-05-07 03:29 | 34.67342 | -108.23115 | 34979 ft | 490 kts | 71° |
| 2026-05-07 03:29 | 34.69454 | -108.15248 | 34990 ft | 490 kts | 71° |
| 2026-05-07 03:30 | 34.71210 | -108.08692 | 34997 ft | 491 kts | 72° |
| 2026-05-07 03:30 | 34.73660 | -107.99513 | 35012 ft | 491 kts | 72° |
| 2026-05-07 03:31 | 34.75764 | -107.91610 | 35022 ft | 492 kts | 72° |
| 2026-05-07 03:31 | 34.77863 | -107.83693 | 35032 ft | 492 kts | 72° |
| 2026-05-07 03:32 | 34.79606 | -107.77106 | 35026 ft | 492 kts | 72° |
| 2026-05-07 03:32 | 34.81703 | -107.69175 | 35008 ft | 493 kts | 72° |
| 2026-05-07 03:33 | 34.83797 | -107.61208 | 34992 ft | 495 kts | 72° |
| 2026-05-07 03:33 | 34.85877 | -107.53260 | 34995 ft | 496 kts | 72° |
| 2026-05-07 03:34 | 34.87975 | -107.45251 | 35000 ft | 497 kts | 72° |
| 2026-05-07 03:34 | 34.90070 | -107.37215 | 35005 ft | 498 kts | 72° |
| 2026-05-07 03:35 | 34.92174 | -107.29124 | 35003 ft | 503 kts | 72° |
| 2026-05-07 03:35 | 34.94289 | -107.20984 | 35002 ft | 504 kts | 72° |
| 2026-05-07 03:36 | 34.96374 | -107.12878 | 35002 ft | 504 kts | 72° |
| 2026-05-07 03:36 | 34.98466 | -107.04720 | 35020 ft | 505 kts | 72° |
| 2026-05-07 03:37 | 35.00580 | -106.96508 | 35005 ft | 509 kts | 72° |
| 2026-05-07 03:37 | 35.02698 | -106.88258 | 35004 ft | 510 kts | 72° |
| 2026-05-07 03:37 | 35.03777 | -106.84140 | 35170 ft | 510 kts | 69° |
| 2026-05-07 03:38 | 35.05176 | -106.80239 | 35181 ft | 508 kts | 60° |
| 2026-05-07 03:38 | 35.08855 | -106.72938 | 35179 ft | 498 kts | 55° |
| 2026-05-07 03:39 | 35.12513 | -106.65849 | 35152 ft | 494 kts | 55° |
| 2026-05-07 03:39 | 35.16175 | -106.58705 | 35022 ft | 497 kts | 55° |
| 2026-05-07 03:40 | 35.19808 | -106.51585 | 35026 ft | 497 kts | 55° |
| 2026-05-07 03:40 | 35.23469 | -106.44419 | 35025 ft | 497 kts | 56° |
| 2026-05-07 03:41 | 35.27126 | -106.37239 | 35027 ft | 497 kts | 56° |
| 2026-05-07 03:41 | 35.30785 | -106.30053 | 35040 ft | 499 kts | 55° |
| 2026-05-07 03:42 | 35.34433 | -106.22877 | 35056 ft | 500 kts | 55° |
| 2026-05-07 03:42 | 35.38108 | -106.15623 | 35084 ft | 501 kts | 55° |
| 2026-05-07 03:43 | 35.41781 | -106.08349 | 35131 ft | 502 kts | 56° |
| 2026-05-07 03:43 | 35.45385 | -106.01182 | 35131 ft | 488 kts | 56° |
| 2026-05-07 03:44 | 35.48938 | -105.94135 | 35126 ft | 491 kts | 55° |
| 2026-05-07 03:44 | 35.52528 | -105.86995 | 35074 ft | 492 kts | 55° |
| 2026-05-07 03:45 | 35.56117 | -105.79832 | 35069 ft | 492 kts | 55° |
| 2026-05-07 03:45 | 35.59704 | -105.72669 | 35107 ft | 492 kts | 56° |
| 2026-05-07 03:46 | 35.63290 | -105.65497 | 35105 ft | 493 kts | 56° |
| 2026-05-07 03:46 | 35.66845 | -105.58352 | 35112 ft | 494 kts | 56° |
| 2026-05-07 03:47 | 35.70436 | -105.51112 | 35139 ft | 497 kts | 56° |
| 2026-05-07 03:47 | 35.74043 | -105.43836 | 35175 ft | 498 kts | 56° |
| 2026-05-07 03:48 | 35.77639 | -105.36560 | 35238 ft | 496 kts | 56° |
| 2026-05-07 03:48 | 35.81192 | -105.29368 | 35251 ft | 494 kts | 56° |
| 2026-05-07 03:49 | 35.84756 | -105.22144 | 35225 ft | 493 kts | 56° |
| 2026-05-07 03:49 | 35.88316 | -105.14910 | 35205 ft | 494 kts | 56° |
| 2026-05-07 03:50 | 35.91875 | -105.07663 | 35215 ft | 494 kts | 56° |
| 2026-05-07 03:50 | 35.95412 | -105.00446 | 35219 ft | 495 kts | 56° |
| 2026-05-07 03:51 | 35.98969 | -104.93171 | 35222 ft | 495 kts | 56° |
| 2026-05-07 03:51 | 36.02526 | -104.85874 | 35206 ft | 497 kts | 56° |
| 2026-05-07 03:52 | 36.06097 | -104.78542 | 35203 ft | 499 kts | 56° |
| 2026-05-07 03:52 | 36.09667 | -104.71192 | 35241 ft | 498 kts | 56° |
| 2026-05-07 03:53 | 36.13191 | -104.63909 | 35236 ft | 495 kts | 56° |
| 2026-05-07 03:53 | 36.16722 | -104.56610 | 35234 ft | 494 kts | 56° |
| 2026-05-07 03:54 | 36.20238 | -104.49324 | 35229 ft | 493 kts | 56° |
| 2026-05-07 03:54 | 36.23717 | -104.42083 | 35227 ft | 492 kts | 56° |
| 2026-05-07 03:55 | 36.27213 | -104.34801 | 35227 ft | 492 kts | 56° |
| 2026-05-07 03:55 | 36.30710 | -104.27517 | 35223 ft | 491 kts | 56° |
| 2026-05-07 03:56 | 36.34202 | -104.20232 | 35246 ft | 492 kts | 57° |
| 2026-05-07 03:56 | 36.37661 | -104.12963 | 35221 ft | 493 kts | 57° |
| 2026-05-07 03:57 | 36.41154 | -104.05621 | 35249 ft | 493 kts | 56° |
| 2026-05-07 03:57 | 36.44633 | -103.98300 | 35249 ft | 491 kts | 56° |
| 2026-05-07 03:58 | 36.48092 | -103.91023 | 35256 ft | 488 kts | 56° |
| 2026-05-07 03:58 | 36.51514 | -103.83805 | 35255 ft | 488 kts | 57° |
| 2026-05-07 03:59 | 36.54954 | -103.76523 | 35227 ft | 489 kts | 57° |
| 2026-05-07 03:59 | 36.58394 | -103.69204 | 35222 ft | 491 kts | 57° |
| 2026-05-07 04:00 | 36.61837 | -103.61861 | 35221 ft | 492 kts | 57° |
| 2026-05-07 04:00 | 36.65261 | -103.54552 | 35228 ft | 492 kts | 57° |
| 2026-05-07 04:01 | 36.68712 | -103.47185 | 35233 ft | 493 kts | 57° |
| 2026-05-07 04:01 | 36.72175 | -103.39796 | 35231 ft | 494 kts | 57° |
| 2026-05-07 04:02 | 36.75627 | -103.32397 | 35243 ft | 493 kts | 57° |
| 2026-05-07 04:02 | 36.79034 | -103.25062 | 35241 ft | 491 kts | 57° |
| 2026-05-07 04:03 | 36.82451 | -103.17682 | 35243 ft | 491 kts | 57° |
| 2026-05-07 04:03 | 36.85865 | -103.10309 | 35243 ft | 491 kts | 57° |
| 2026-05-07 04:04 | 36.89285 | -103.02911 | 35222 ft | 493 kts | 57° |
| 2026-05-07 04:04 | 36.92680 | -102.95534 | 35221 ft | 494 kts | 57° |
| 2026-05-07 04:05 | 36.96104 | -102.88087 | 35226 ft | 494 kts | 57° |
| 2026-05-07 04:05 | 36.99526 | -102.80633 | 35229 ft | 495 kts | 57° |
| 2026-05-07 04:06 | 37.02943 | -102.73160 | 35237 ft | 496 kts | 57° |
| 2026-05-07 04:06 | 37.06336 | -102.65715 | 35237 ft | 495 kts | 57° |
| 2026-05-07 04:07 | 37.09747 | -102.58224 | 35235 ft | 495 kts | 57° |
| 2026-05-07 04:07 | 37.13148 | -102.50742 | 35233 ft | 494 kts | 57° |
| 2026-05-07 04:08 | 37.16545 | -102.43257 | 35247 ft | 494 kts | 57° |
| 2026-05-07 04:08 | 37.19915 | -102.35812 | 35237 ft | 495 kts | 57° |
| 2026-05-07 04:09 | 37.23319 | -102.28286 | 35223 ft | 497 kts | 57° |
| 2026-05-07 04:09 | 37.26726 | -102.20740 | 35222 ft | 498 kts | 57° |
| 2026-05-07 04:10 | 37.30132 | -102.13158 | 35225 ft | 499 kts | 57° |
| 2026-05-07 04:10 | 37.33503 | -102.05612 | 35231 ft | 499 kts | 58° |
| 2026-05-07 04:11 | 37.36895 | -101.98007 | 35265 ft | 498 kts | 57° |
| 2026-05-07 04:11 | 37.40290 | -101.90415 | 35259 ft | 498 kts | 57° |
| 2026-05-07 04:12 | 37.43679 | -101.82818 | 35263 ft | 498 kts | 57° |
| 2026-05-07 04:12 | 37.47037 | -101.75270 | 35263 ft | 498 kts | 58° |
| 2026-05-07 04:13 | 37.50406 | -101.67652 | 35278 ft | 498 kts | 58° |
| 2026-05-07 04:13 | 37.53779 | -101.60023 | 35252 ft | 499 kts | 58° |
| 2026-05-07 04:14 | 37.57157 | -101.52376 | 35243 ft | 500 kts | 58° |
| 2026-05-07 04:14 | 37.60535 | -101.44698 | 35240 ft | 501 kts | 58° |
| 2026-05-07 04:15 | 37.63889 | -101.37052 | 35238 ft | 502 kts | 58° |
| 2026-05-07 04:15 | 37.67258 | -101.29354 | 35274 ft | 501 kts | 58° |
| 2026-05-07 04:16 | 37.70637 | -101.21612 | 35211 ft | 505 kts | 58° |
| 2026-05-07 04:16 | 37.74030 | -101.13824 | 35214 ft | 507 kts | 58° |
| 2026-05-07 04:17 | 37.77405 | -101.06062 | 35210 ft | 508 kts | 58° |
| 2026-05-07 04:17 | 37.80810 | -100.98226 | 35225 ft | 509 kts | 58° |
| 2026-05-07 04:18 | 37.84207 | -100.90368 | 35233 ft | 509 kts | 58° |
| 2026-05-07 04:18 | 37.87597 | -100.82498 | 35239 ft | 509 kts | 58° |
| 2026-05-07 04:19 | 37.90959 | -100.74676 | 35240 ft | 509 kts | 58° |
| 2026-05-07 04:19 | 37.93942 | -100.66518 | 35239 ft | 511 kts | 64° |
| 2026-05-07 04:20 | 37.96765 | -100.58246 | 35241 ft | 511 kts | 64° |
| 2026-05-07 04:20 | 37.99587 | -100.49957 | 35222 ft | 513 kts | 64° |
| 2026-05-07 04:21 | 38.03806 | -100.37511 | 35213 ft | 516 kts | 64° |
| 2026-05-07 04:21 | 38.06633 | -100.29139 | 35218 ft | 517 kts | 64° |
| 2026-05-07 04:22 | 38.09453 | -100.20750 | 35224 ft | 517 kts | 65° |
| 2026-05-07 04:22 | 38.12258 | -100.12387 | 35216 ft | 519 kts | 65° |
| 2026-05-07 04:23 | 38.15086 | -100.03943 | 35215 ft | 520 kts | 65° |
| 2026-05-07 04:23 | 38.17913 | -99.95465 | 35224 ft | 522 kts | 65° |